Time;durP1;ratioP1;P1;durP2;ratioP2;P2;SDS_P1;SDS_P2;PMS_P1;PMS_P2;Temp;Humidity;BMP_temperature;BMP_pressure;BME280_temperature;BME280_humidity;BME280_pressure;Samples;Min_cycle;Max_cycle;Signal;HPM_P1;HPM_P2
2021/10/28 00:13:59;;;;;;;41.50;21.13;;;;;;;;;;5056630;28;20056;-73
2021/10/28 00:16:29;;;;;;;40.42;21.20;;;;;;;;;;5064787;28;20425;-74
2021/10/28 00:19:01;;;;;;;37.40;19.38;;;;;;;;;;5066680;28;20543;-73
2021/10/28 00:21:29;;;;;;;39.28;21.23;;;;;;;;;;5070565;28;20585;-73
2021/10/28 00:23:59;;;;;;;39.90;20.92;;;;;;;;;;5065056;28;20048;-73
2021/10/28 00:26:26;;;;;;;40.78;21.30;;;;;;;;;;5064550;28;20098;-73
2021/10/28 00:28:57;;;;;;;39.88;21.52;;;;;;;;;;5069005;28;20109;-73
2021/10/28 00:31:24;;;;;;;38.47;20.95;;;;;;;;;;5068780;28;20127;-73
2021/10/28 00:33:50;;;;;;;39.55;19.63;;;;;;;;;;5064105;28;20514;-74
2021/10/28 00:36:18;;;;;;;43.03;21.30;;;;;;;;;;5064788;28;20053;-73
2021/10/28 00:38:45;;;;;;;37.83;20.25;;;;;;;;;;5069874;28;20047;-73
2021/10/28 00:41:12;;;;;;;46.40;22.88;;;;;;;;;;5072246;28;20056;-73
2021/10/28 00:43:45;;;;;;;43.45;21.90;;;;;;;;;;5066078;28;20387;-74
2021/10/28 00:46:11;;;;;;;45.60;23.77;;;;;;;;;;5068754;28;20077;-73
2021/10/28 00:48:38;;;;;;;42.75;20.52;;;;;;;;;;5065735;28;20413;-73
2021/10/28 00:51:06;;;;;;;39.50;20.80;;;;;;;;;;5076983;28;20082;-73
2021/10/28 00:53:35;;;;;;;40.00;21.52;;;;;;;;;;5062322;28;20049;-73
2021/10/28 00:56:03;;;;;;;39.20;22.00;;;;;;;;;;5065184;28;20056;-73
2021/10/28 00:58:32;;;;;;;40.60;20.80;;;;;;;;;;5068714;28;20048;-73
2021/10/28 01:00:59;;;;;;;44.50;22.88;;;;;;;;;;5065555;28;20052;-73
2021/10/28 01:03:26;;;;;;;42.83;22.45;;;;;;;;;;5058444;28;20054;-73
2021/10/28 01:05:52;;;;;;;40.95;21.10;;;;;;;;;;5062469;28;20055;-73
2021/10/28 01:08:19;;;;;;;43.35;22.15;;;;;;;;;;5068731;28;20045;-73
2021/10/28 01:10:48;;;;;;;39.35;20.98;;;;;;;;;;5059008;28;20517;-73
2021/10/28 01:13:15;;;;;;;44.00;21.23;;;;;;;;;;5067273;28;20052;-73
2021/10/28 01:15:42;;;;;;;40.88;21.20;;;;;;;;;;5070268;28;20040;-73
2021/10/28 01:18:09;;;;;;;40.33;20.05;;;;;;;;;;5064125;28;20060;-73
2021/10/28 01:20:38;;;;;;;43.40;21.50;;;;;;;;;;5057762;28;20044;-73
2021/10/28 01:23:04;;;;;;;37.20;19.63;;;;;;;;;;5064234;28;20056;-73
2021/10/28 01:25:31;;;;;;;41.20;20.42;;;;;;;;;;5055149;28;20048;-73
2021/10/28 01:27:57;;;;;;;40.80;20.27;;;;;;;;;;5067104;28;20049;-74
2021/10/28 01:30:24;;;;;;;43.60;20.38;;;;;;;;;;5071017;28;20051;-73
2021/10/28 01:32:50;;;;;;;40.53;21.40;;;;;;;;;;5069255;28;20044;-73
2021/10/28 01:35:17;;;;;;;40.60;22.80;;;;;;;;;;5066670;28;20505;-73
2021/10/28 01:37:45;;;;;;;43.53;21.27;;;;;;;;;;5066878;28;20052;-73
2021/10/28 01:40:12;;;;;;;36.88;19.27;;;;;;;;;;5068576;28;20049;-73
2021/10/28 01:42:39;;;;;;;41.05;21.63;;;;;;;;;;5064339;28;20048;-73
2021/10/28 01:45:06;;;;;;;37.72;19.55;;;;;;;;;;5070612;28;20481;-74
2021/10/28 01:47:33;;;;;;;42.97;22.52;;;;;;;;;;5060060;28;20048;-73
2021/10/28 01:49:59;;;;;;;40.25;18.55;;;;;;;;;;5070303;28;20105;-73
2021/10/28 01:52:26;;;;;;;42.42;21.40;;;;;;;;;;5067344;28;20063;-73
2021/10/28 01:54:53;;;;;;;38.88;20.88;;;;;;;;;;5063560;28;20040;-73
2021/10/28 01:57:21;;;;;;;38.08;19.75;;;;;;;;;;5063948;28;20063;-73
2021/10/28 01:59:48;;;;;;;39.45;19.70;;;;;;;;;;5070623;28;20120;-73
2021/10/28 02:02:14;;;;;;;36.38;18.42;;;;;;;;;;5063549;28;20136;-73
2021/10/28 02:04:41;;;;;;;43.92;22.00;;;;;;;;;;5063260;28;20040;-73
2021/10/28 02:07:07;;;;;;;35.30;18.63;;;;;;;;;;5061996;28;20045;-74
2021/10/28 02:09:35;;;;;;;41.50;20.83;;;;;;;;;;5064753;28;20570;-73
2021/10/28 02:12:03;;;;;;;40.88;21.83;;;;;;;;;;5063325;28;20110;-73
2021/10/28 02:14:30;;;;;;;40.10;19.55;;;;;;;;;;5067615;28;20036;-74
2021/10/28 02:16:57;;;;;;;36.38;18.80;;;;;;;;;;5068001;28;20054;-74
2021/10/28 02:19:23;;;;;;;36.97;18.80;;;;;;;;;;5065162;28;20040;-73
2021/10/28 02:21:50;;;;;;;36.80;18.98;;;;;;;;;;5072804;28;20386;-73
2021/10/28 02:24:16;;;;;;;38.80;19.25;;;;;;;;;;5065987;28;20044;-73
2021/10/28 02:26:43;;;;;;;45.63;21.95;;;;;;;;;;5064565;28;20049;-73
2021/10/28 02:29:11;;;;;;;45.83;22.58;;;;;;;;;;5073430;28;20045;-73
2021/10/28 02:31:43;;;;;;;43.40;21.15;;;;;;;;;;5068545;28;20048;-73
2021/10/28 02:34:09;;;;;;;38.53;19.67;;;;;;;;;;5057091;28;20060;-73
2021/10/28 02:36:36;;;;;;;38.10;19.52;;;;;;;;;;5069490;28;20383;-73
2021/10/28 02:39:02;;;;;;;41.55;19.98;;;;;;;;;;5073152;28;20057;-73
2021/10/28 02:41:29;;;;;;;38.97;19.92;;;;;;;;;;5072596;28;20490;-73
2021/10/28 02:43:56;;;;;;;35.13;18.13;;;;;;;;;;5068960;28;20052;-74
2021/10/28 02:46:24;;;;;;;39.72;20.42;;;;;;;;;;5070920;28;20079;-74
2021/10/28 02:48:50;;;;;;;34.95;19.60;;;;;;;;;;5073063;28;20048;-73
2021/10/28 02:51:17;;;;;;;38.80;20.35;;;;;;;;;;5072298;28;20391;-73
2021/10/28 02:53:43;;;;;;;36.75;19.23;;;;;;;;;;5065002;28;20049;-73
2021/10/28 02:56:10;;;;;;;35.80;17.75;;;;;;;;;;5066374;28;20059;-74
2021/10/28 02:58:36;;;;;;;41.67;21.50;;;;;;;;;;5069600;28;20052;-74
2021/10/28 03:01:03;;;;;;;36.95;18.88;;;;;;;;;;5069083;28;20502;-74
2021/10/28 03:03:30;;;;;;;37.05;18.98;;;;;;;;;;5070106;28;20060;-74
2021/10/28 03:05:57;;;;;;;36.38;19.92;;;;;;;;;;5071785;28;20049;-74
2021/10/28 03:08:23;;;;;;;39.65;20.17;;;;;;;;;;5070752;28;20052;-74
2021/10/28 03:10:51;;;;;;;35.85;18.17;;;;;;;;;;5066698;28;20048;-74
2021/10/28 03:13:20;;;;;;;35.35;17.63;;;;;;;;;;5069662;28;20049;-74
2021/10/28 03:15:48;;;;;;;31.40;16.98;;;;;;;;;;5073259;28;20041;-74
2021/10/28 03:26:25;;;;;;;32.08;17.23;;;;;;;;;;5059341;28;20079;-74
2021/10/28 03:28:52;;;;;;;29.13;15.93;;;;;;;;;;5069930;28;20056;-73
2021/10/28 03:31:18;;;;;;;33.38;17.40;;;;;;;;;;5070458;28;20052;-74
2021/10/28 03:33:45;;;;;;;32.38;17.63;;;;;;;;;;5067206;28;20499;-74
2021/10/28 03:36:21;;;;;;;35.55;16.08;;;;;;;;;;5060319;28;20045;-74
2021/10/28 03:38:54;;;;;;;32.60;17.52;;;;;;;;;;5071808;28;20068;-74
2021/10/28 03:41:47;;;;;;;32.25;16.02;;;;;;;;;;5072044;28;20049;-74
2021/10/28 03:44:56;;;;;;;26.02;15.60;;;;;;;;;;5064968;28;20673;-74
2021/10/28 03:50:36;;;;;;;29.83;14.88;;;;;;;;;;5014890;28;20053;-73
2021/10/28 04:18:34;;;;;;;29.52;15.70;;;;;;;;;;5066493;28;20059;-73
2021/10/28 04:21:21;;;;;;;28.27;15.65;;;;;;;;;;5072022;28;20044;-73
2021/10/28 04:29:17;;;;;;;28.73;14.10;;;;;;;;;;5062712;28;20060;-74
2021/10/28 04:31:43;;;;;;;27.77;15.40;;;;;;;;;;5066136;28;20426;-74
2021/10/28 04:34:11;;;;;;;25.05;13.90;;;;;;;;;;5059138;28;20056;-74
2021/10/28 04:36:39;;;;;;;23.92;13.93;;;;;;;;;;5052182;28;20044;-74
2021/10/28 04:39:07;;;;;;;21.35;13.13;;;;;;;;;;5068662;28;20060;-74
2021/10/28 04:41:36;;;;;;;26.27;14.77;;;;;;;;;;5078727;28;20036;-74
2021/10/28 04:44:06;;;;;;;28.00;15.38;;;;;;;;;;5054514;28;20048;-73
2021/10/28 04:46:32;;;;;;;26.50;14.65;;;;;;;;;;5068477;28;20181;-74
2021/10/28 04:48:59;;;;;;;21.42;12.55;;;;;;;;;;5063627;28;20410;-75
2021/10/28 04:51:25;;;;;;;23.90;12.73;;;;;;;;;;5066804;28;20052;-73
2021/10/28 04:53:52;;;;;;;26.02;14.02;;;;;;;;;;5070929;28;20048;-73
2021/10/28 04:56:18;;;;;;;22.35;13.05;;;;;;;;;;5059888;28;20479;-73
2021/10/28 04:58:46;;;;;;;23.23;14.02;;;;;;;;;;5057631;28;20048;-73
2021/10/28 05:01:12;;;;;;;27.10;15.25;;;;;;;;;;5067690;28;20052;-74
2021/10/28 05:03:39;;;;;;;23.00;13.02;;;;;;;;;;5064294;28;20052;-75
2021/10/28 05:06:05;;;;;;;23.88;13.65;;;;;;;;;;5052111;28;20060;-73
2021/10/28 05:08:33;;;;;;;25.65;14.43;;;;;;;;;;5078890;28;20514;-75
2021/10/28 05:10:59;;;;;;;22.42;12.60;;;;;;;;;;5063460;28;20406;-75
2021/10/28 05:13:26;;;;;;;24.88;13.85;;;;;;;;;;5077653;28;20040;-75
2021/10/28 05:15:54;;;;;;;23.55;14.10;;;;;;;;;;5073662;28;20048;-73
2021/10/28 05:18:23;;;;;;;22.77;12.32;;;;;;;;;;5067686;28;20045;-74
2021/10/28 05:20:50;;;;;;;22.30;12.63;;;;;;;;;;5064373;28;20090;-75
2021/10/28 05:23:17;;;;;;;24.20;13.90;;;;;;;;;;5049266;28;20053;-74
2021/10/28 05:25:44;;;;;;;23.95;14.15;;;;;;;;;;5057249;28;20048;-73
2021/10/28 05:28:11;;;;;;;25.40;13.60;;;;;;;;;;5062497;28;20064;-73
2021/10/28 05:30:37;;;;;;;26.35;14.95;;;;;;;;;;5074445;28;20057;-75
2021/10/28 05:33:05;;;;;;;22.35;12.35;;;;;;;;;;5059868;28;20049;-74
2021/10/28 05:35:31;;;;;;;26.58;14.43;;;;;;;;;;5055290;28;20047;-75
2021/10/28 05:37:58;;;;;;;24.25;13.05;;;;;;;;;;5050803;28;20056;-74
2021/10/28 05:40:25;;;;;;;21.67;11.85;;;;;;;;;;5057674;28;20517;-75
2021/10/28 05:42:53;;;;;;;24.90;13.93;;;;;;;;;;5070676;28;20510;-75
2021/10/28 05:45:20;;;;;;;24.23;12.75;;;;;;;;;;5070771;28;20131;-75
2021/10/28 05:47:48;;;;;;;25.95;13.50;;;;;;;;;;5056601;28;20414;-75
2021/10/28 05:50:19;;;;;;;22.40;12.95;;;;;;;;;;5070013;28;20241;-75
2021/10/28 05:52:46;;;;;;;25.00;13.35;;;;;;;;;;5077337;28;20075;-75
2021/10/28 05:55:14;;;;;;;25.67;13.38;;;;;;;;;;5058917;28;20049;-74
2021/10/28 05:57:40;;;;;;;29.92;14.95;;;;;;;;;;5075787;28;20490;-75
2021/10/28 06:00:08;;;;;;;25.00;14.43;;;;;;;;;;5087254;28;20490;-75
2021/10/28 06:02:35;;;;;;;25.42;14.38;;;;;;;;;;5087519;28;20044;-75
2021/10/28 06:05:02;;;;;;;28.85;14.95;;;;;;;;;;5064107;28;20076;-75
2021/10/28 06:07:30;;;;;;;26.38;13.93;;;;;;;;;;5056272;28;20543;-75
2021/10/28 06:09:56;;;;;;;25.75;14.30;;;;;;;;;;5064723;28;20417;-75
2021/10/28 06:12:24;;;;;;;28.17;14.93;;;;;;;;;;5073988;28;20044;-75
2021/10/28 06:14:51;;;;;;;28.85;14.75;;;;;;;;;;5071425;28;20087;-75
2021/10/28 06:17:19;;;;;;;24.48;13.38;;;;;;;;;;5062247;28;20040;-73
2021/10/28 06:19:45;;;;;;;28.17;15.55;;;;;;;;;;5062784;28;20040;-75
2021/10/28 06:22:12;;;;;;;29.50;14.05;;;;;;;;;;5072360;28;20048;-75
2021/10/28 06:24:39;;;;;;;27.90;13.63;;;;;;;;;;5066047;28;20049;-75
2021/10/28 06:27:06;;;;;;;25.90;14.48;;;;;;;;;;5057981;28;20048;-75
2021/10/28 06:29:33;;;;;;;26.45;14.05;;;;;;;;;;5094612;28;20051;-75
2021/10/28 06:32:00;;;;;;;32.22;15.63;;;;;;;;;;5075071;28;20056;-74
2021/10/28 06:34:32;;;;;;;27.45;16.15;;;;;;;;;;5066230;28;20089;-74
2021/10/28 06:37:03;;;;;;;28.15;15.50;;;;;;;;;;5093278;28;20742;-75
2021/10/28 06:39:30;;;;;;;26.63;15.88;;;;;;;;;;5076028;28;20044;-74
2021/10/28 06:41:58;;;;;;;29.77;16.23;;;;;;;;;;5055526;28;20061;-74
2021/10/28 06:44:24;;;;;;;26.50;14.13;;;;;;;;;;5064305;28;20052;-74
2021/10/28 06:46:51;;;;;;;30.25;14.70;;;;;;;;;;5073535;28;20052;-73
2021/10/28 06:49:19;;;;;;;27.20;14.43;;;;;;;;;;5070053;28;20044;-74
2021/10/28 06:51:46;;;;;;;34.00;16.80;;;;;;;;;;5069988;28;20558;-75
2021/10/28 06:54:20;;;;;;;33.80;18.33;;;;;;;;;;5078346;28;20056;-74
2021/10/28 06:57:16;;;;;;;34.67;18.27;;;;;;;;;;5082661;28;20037;-75
2021/10/28 07:02:33;;;;;;;33.47;17.02;;;;;;;;;;5060994;28;20055;-75
2021/10/28 07:05:00;;;;;;;36.38;18.17;;;;;;;;;;5053563;28;20084;-75
2021/10/28 07:07:29;;;;;;;35.38;17.52;;;;;;;;;;5063012;28;20485;-74
2021/10/28 07:10:02;;;;;;;33.95;17.17;;;;;;;;;;5060166;28;20399;-74
2021/10/28 07:12:39;;;;;;;32.83;17.70;;;;;;;;;;5069539;28;20049;-75
2021/10/28 07:15:12;;;;;;;29.48;16.92;;;;;;;;;;5060006;28;20059;-75
2021/10/28 07:17:47;;;;;;;32.58;16.70;;;;;;;;;;5083125;28;20101;-75
2021/10/28 07:20:25;;;;;;;28.65;17.13;;;;;;;;;;5064415;28;20047;-75
2021/10/28 07:31:20;;;;;;;27.40;14.82;;;;;;;;;;5077071;28;20097;-74
2021/10/28 07:56:21;;;;;;;20.13;12.43;;;;;;;;;;5108514;28;20055;-73
2021/10/28 07:59:04;;;;;;;21.05;12.25;;;;;;;;;;5088272;28;20076;-73
2021/10/28 08:15:22;;;;;;;19.55;11.50;;;;;;;;;;5114212;28;20094;-74
2021/10/28 08:21:08;;;;;;;16.30;10.43;;;;;;;;;;5024520;28;20068;-74
2021/10/28 08:23:38;;;;;;;20.08;11.73;;;;;;;;;;5027771;28;20514;-74
2021/10/28 08:28:52;;;;;;;18.27;11.27;;;;;;;;;;5005360;28;20134;-74
2021/10/28 08:31:21;;;;;;;18.75;11.50;;;;;;;;;;5012928;28;20499;-74
2021/10/28 08:33:47;;;;;;;18.70;10.90;;;;;;;;;;5027020;28;20055;-74
2021/10/28 08:36:20;;;;;;;20.05;11.82;;;;;;;;;;5041631;28;20127;-73
2021/10/28 08:38:47;;;;;;;19.42;11.88;;;;;;;;;;5105432;28;20496;-73
2021/10/28 08:41:14;;;;;;;19.05;11.40;;;;;;;;;;5113373;28;20055;-73
2021/10/28 08:43:43;;;;;;;20.17;12.27;;;;;;;;;;5107555;28;20048;-73
2021/10/28 08:46:11;;;;;;;19.38;11.82;;;;;;;;;;5112768;28;20089;-73
2021/10/28 08:48:41;;;;;;;18.17;11.30;;;;;;;;;;5108581;28;20044;-73
2021/10/28 08:51:11;;;;;;;18.35;11.52;;;;;;;;;;5110985;28;20567;-73
2021/10/28 08:54:03;;;;;;;18.27;11.93;;;;;;;;;;5101236;28;20105;-73
2021/10/28 08:56:59;;;;;;;16.60;10.25;;;;;;;;;;5098369;28;20397;-73
2021/10/28 09:24:35;;;;;;;15.02;10.00;;;;;;;;;;5093258;28;20520;-73
2021/10/28 09:27:06;;;;;;;17.98;10.75;;;;;;;;;;5098628;28;20048;-74
2021/10/28 09:29:41;;;;;;;16.48;10.15;;;;;;;;;;5110820;28;20066;-73
2021/10/28 09:32:17;;;;;;;12.63;9.07;;;;;;;;;;5097412;28;20082;-73
2021/10/28 09:46:32;;;;;;;13.20;8.40;;;;;;;;;;5111960;27;20058;-73
2021/10/28 09:51:55;;;;;;;14.10;9.15;;;;;;;;;;5096436;28;20096;-73
2021/10/28 09:54:39;;;;;;;14.80;9.85;;;;;;;;;;5102740;28;20512;-73
2021/10/28 09:59:53;;;;;;;13.48;8.25;;;;;;;;;;5092333;28;20113;-73
2021/10/28 10:02:25;;;;;;;12.95;9.15;;;;;;;;;;5096150;28;20044;-73
2021/10/28 10:04:52;;;;;;;13.48;9.05;;;;;;;;;;5091244;28;20044;-73
2021/10/28 10:07:21;;;;;;;12.73;8.70;;;;;;;;;;5096463;28;20408;-73
2021/10/28 10:09:49;;;;;;;12.40;8.10;;;;;;;;;;5095883;28;20055;-73
2021/10/28 10:12:16;;;;;;;16.50;8.18;;;;;;;;;;5089451;28;20062;-73
2021/10/28 10:14:43;;;;;;;11.77;8.20;;;;;;;;;;5092616;28;20056;-73
2021/10/28 10:17:11;;;;;;;11.30;7.93;;;;;;;;;;5092230;28;20291;-73
2021/10/28 10:19:41;;;;;;;12.32;8.60;;;;;;;;;;5091205;28;20090;-73
2021/10/28 10:22:23;;;;;;;15.15;8.32;;;;;;;;;;5091497;28;20086;-73
2021/10/28 10:25:01;;;;;;;11.93;7.93;;;;;;;;;;5092159;28;20161;-73
2021/10/28 11:21:40;;;;;;;12.20;8.57;;;;;;;;;;5077768;28;20058;-73
2021/10/28 11:27:25;;;;;;;10.60;7.57;;;;;;;;;;5103494;28;20070;-73
2021/10/28 12:17:31;;;;;;;12.07;7.68;;;;;;;;;;5090907;28;20193;-72
2021/10/28 12:20:50;;;;;;;9.80;7.13;;;;;;;;;;5093185;28;20048;-72
2021/10/28 12:43:42;;;;;;;10.15;7.15;;;;;;;;;;5100677;28;20094;-73
2021/10/28 12:46:15;;;;;;;9.30;7.00;;;;;;;;;;5105623;28;20044;-73
2021/10/28 12:57:05;;;;;;;13.15;8.25;;;;;;;;;;5098088;28;20048;-72
2021/10/28 13:02:45;;;;;;;9.93;6.93;;;;;;;;;;5102065;28;20055;-72
2021/10/28 13:49:55;;;;;;;9.20;6.50;;;;;;;;;;5088539;28;20232;-72
2021/10/28 13:52:40;;;;;;;14.82;6.85;;;;;;;;;;5093829;28;20403;-72
2021/10/28 13:55:21;;;;;;;7.53;6.35;;;;;;;;;;5102590;28;20828;-73
2021/10/28 13:58:09;;;;;;;7.32;5.68;;;;;;;;;;5099883;28;20100;-73
2021/10/28 14:23:24;;;;;;;7.53;5.50;;;;;;;;;;5096970;28;20067;-72
2021/10/28 15:29:42;;;;;;;6.57;4.78;;;;;;;;;;5091028;28;20054;-72
2021/10/28 15:32:46;;;;;;;8.38;4.55;;;;;;;;;;5093143;28;20040;-72
2021/10/28 15:35:19;;;;;;;7.10;5.07;;;;;;;;;;5079763;28;20126;-72
2021/10/28 15:38:04;;;;;;;8.80;6.05;;;;;;;;;;5089812;28;20101;-72
2021/10/28 15:40:43;;;;;;;8.60;5.20;;;;;;;;;;5091070;28;20494;-72
2021/10/28 15:52:10;;;;;;;7.95;5.50;;;;;;;;;;5089637;28;20063;-72
2021/10/28 15:57:25;;;;;;;13.73;8.07;;;;;;;;;;5087568;28;20048;-72
2021/10/28 16:00:13;;;;;;;14.40;7.47;;;;;;;;;;5087274;28;20089;-72
2021/10/28 16:21:53;;;;;;;8.25;3.90;;;;;;;;;;5092266;28;20063;-74
2021/10/28 16:24:20;;;;;;;7.55;4.38;;;;;;;;;;5091459;28;20134;-74
2021/10/28 16:26:47;;;;;;;9.80;3.78;;;;;;;;;;5089785;28;20048;-74
2021/10/28 16:29:14;;;;;;;7.00;4.00;;;;;;;;;;5088787;28;20044;-73
2021/10/28 16:31:43;;;;;;;8.27;4.25;;;;;;;;;;5088647;28;20055;-73
2021/10/28 16:34:10;;;;;;;6.93;4.10;;;;;;;;;;5090197;28;20517;-73
2021/10/28 16:36:37;;;;;;;6.70;3.97;;;;;;;;;;5090546;28;20056;-73
2021/10/28 16:39:08;;;;;;;7.32;4.43;;;;;;;;;;5090134;28;20044;-73
2021/10/28 16:41:35;;;;;;;6.28;3.78;;;;;;;;;;5090081;28;20047;-74
2021/10/28 16:44:01;;;;;;;5.68;3.53;;;;;;;;;;5091637;28;20509;-73
2021/10/28 16:46:28;;;;;;;5.00;3.33;;;;;;;;;;5090594;28;20142;-73
2021/10/28 16:48:56;;;;;;;7.40;3.63;;;;;;;;;;5090230;28;20474;-73
2021/10/28 16:51:23;;;;;;;5.63;3.78;;;;;;;;;;5090225;28;20056;-73
2021/10/28 16:53:50;;;;;;;10.43;6.85;;;;;;;;;;5090244;28;20051;-72
2021/10/28 16:56:18;;;;;;;7.40;4.95;;;;;;;;;;5092183;28;20044;-73
2021/10/28 16:58:44;;;;;;;6.85;4.07;;;;;;;;;;5090536;28;20051;-73
2021/10/28 17:01:11;;;;;;;9.43;5.18;;;;;;;;;;5089983;28;20060;-72
2021/10/28 17:03:38;;;;;;;10.48;5.38;;;;;;;;;;5090193;28;20055;-72
2021/10/28 17:06:07;;;;;;;12.65;7.75;;;;;;;;;;5090705;28;20052;-73
2021/10/28 17:08:33;;;;;;;12.50;7.55;;;;;;;;;;5089024;28;20466;-72
2021/10/28 17:11:01;;;;;;;14.73;8.10;;;;;;;;;;5090519;28;20048;-73
2021/10/28 17:13:28;;;;;;;11.77;6.90;;;;;;;;;;5094295;28;20418;-73
2021/10/28 17:15:56;;;;;;;11.38;5.90;;;;;;;;;;5093041;28;20383;-73
2021/10/28 17:18:22;;;;;;;8.65;5.25;;;;;;;;;;5094669;28;20047;-73
2021/10/28 17:20:49;;;;;;;8.80;5.43;;;;;;;;;;5090702;28;20093;-74
2021/10/28 17:23:18;;;;;;;8.00;4.57;;;;;;;;;;5092280;28;20051;-73
2021/10/28 17:25:51;;;;;;;6.82;4.38;;;;;;;;;;5091817;28;20058;-73
2021/10/28 17:28:18;;;;;;;7.60;4.97;;;;;;;;;;5094945;28;20054;-74
2021/10/28 17:30:44;;;;;;;8.30;5.18;;;;;;;;;;5100988;28;20055;-73
2021/10/28 17:33:10;;;;;;;7.80;5.45;;;;;;;;;;5094650;28;20048;-73
2021/10/28 17:35:37;;;;;;;11.23;5.95;;;;;;;;;;5092287;28;20055;-73
2021/10/28 17:38:05;;;;;;;7.43;4.88;;;;;;;;;;5087734;28;20410;-73
2021/10/28 17:40:33;;;;;;;7.60;5.78;;;;;;;;;;5089746;28;20139;-72
2021/10/28 17:42:59;;;;;;;7.07;4.70;;;;;;;;;;5087599;28;20040;-73
2021/10/28 17:45:29;;;;;;;9.18;5.47;;;;;;;;;;5091237;28;20422;-72
2021/10/28 17:47:56;;;;;;;6.57;4.38;;;;;;;;;;5097586;28;20052;-73
2021/10/28 17:50:24;;;;;;;7.50;4.28;;;;;;;;;;5094964;28;20448;-73
2021/10/28 17:52:51;;;;;;;7.43;4.53;;;;;;;;;;5097424;28;20509;-73
2021/10/28 17:55:17;;;;;;;8.20;4.32;;;;;;;;;;5093189;28;20048;-72
2021/10/28 17:57:47;;;;;;;7.95;3.78;;;;;;;;;;5089196;28;20643;-72
2021/10/28 18:00:15;;;;;;;9.00;3.67;;;;;;;;;;5090278;28;20048;-72
2021/10/28 18:02:41;;;;;;;6.75;3.97;;;;;;;;;;5090169;28;20048;-72
2021/10/28 18:05:09;;;;;;;6.60;3.55;;;;;;;;;;5091711;28;20044;-72
2021/10/28 18:07:35;;;;;;;7.97;3.72;;;;;;;;;;5094586;28;20058;-72
2021/10/28 18:10:02;;;;;;;9.35;3.90;;;;;;;;;;5093015;28;20052;-72
2021/10/28 18:12:29;;;;;;;7.85;3.60;;;;;;;;;;5091948;28;20553;-72
2021/10/28 18:14:57;;;;;;;6.10;4.07;;;;;;;;;;5090973;28;20044;-72
2021/10/28 18:17:23;;;;;;;8.68;5.13;;;;;;;;;;5093062;28;20056;-72
2021/10/28 18:19:49;;;;;;;9.60;6.25;;;;;;;;;;5093582;28;20421;-72
2021/10/28 18:22:17;;;;;;;10.82;6.28;;;;;;;;;;5088265;28;20040;-72
2021/10/28 18:24:43;;;;;;;11.63;6.20;;;;;;;;;;5085894;28;20448;-74
2021/10/28 18:27:10;;;;;;;8.95;5.40;;;;;;;;;;5091107;28;20059;-72
2021/10/28 18:29:36;;;;;;;7.03;4.18;;;;;;;;;;5089680;28;20047;-73
2021/10/28 18:32:06;;;;;;;7.53;4.07;;;;;;;;;;5093185;28;20593;-73
2021/10/28 18:34:33;;;;;;;10.23;4.97;;;;;;;;;;5085319;28;20040;-72
2021/10/28 18:36:59;;;;;;;8.32;5.97;;;;;;;;;;5085224;28;20402;-75
2021/10/28 18:39:26;;;;;;;7.18;4.15;;;;;;;;;;5099409;28;20123;-74
2021/10/28 18:41:53;;;;;;;6.88;4.03;;;;;;;;;;5093543;28;20047;-75
2021/10/28 18:44:21;;;;;;;9.07;3.95;;;;;;;;;;5092768;28;20143;-74
2021/10/28 18:46:48;;;;;;;6.93;4.57;;;;;;;;;;5089287;28;20044;-72
2021/10/28 18:49:17;;;;;;;7.75;5.38;;;;;;;;;;5088801;28;20051;-74
2021/10/28 18:51:46;;;;;;;10.77;5.80;;;;;;;;;;5090907;28;20085;-72
2021/10/28 18:54:15;;;;;;;16.33;10.25;;;;;;;;;;5089002;28;20421;-74
2021/10/28 18:56:41;;;;;;;11.13;7.68;;;;;;;;;;5090658;28;20044;-74
2021/10/28 18:59:08;;;;;;;12.30;8.55;;;;;;;;;;5094705;28;20047;-74
2021/10/28 19:01:36;;;;;;;11.35;8.50;;;;;;;;;;5090696;28;20047;-74
2021/10/28 19:04:03;;;;;;;9.95;7.88;;;;;;;;;;5091156;28;20048;-74
2021/10/28 19:06:30;;;;;;;12.40;7.00;;;;;;;;;;5091410;28;20047;-74
2021/10/28 19:08:57;;;;;;;7.55;5.10;;;;;;;;;;5076833;28;20059;-74
2021/10/28 19:11:25;;;;;;;8.55;5.75;;;;;;;;;;5092252;28;20054;-74
2021/10/28 19:13:52;;;;;;;8.48;5.18;;;;;;;;;;5086393;28;20047;-74
2021/10/28 19:16:20;;;;;;;8.48;4.47;;;;;;;;;;5091518;28;20056;-74
2021/10/28 19:18:47;;;;;;;5.25;3.85;;;;;;;;;;5090081;28;20059;-74
2021/10/28 19:21:14;;;;;;;7.10;4.38;;;;;;;;;;5089588;28;20048;-74
2021/10/28 19:23:42;;;;;;;6.50;4.10;;;;;;;;;;5088042;28;20059;-74
2021/10/28 19:26:09;;;;;;;5.60;3.67;;;;;;;;;;5088783;28;20055;-74
2021/10/28 19:28:36;;;;;;;7.45;3.35;;;;;;;;;;5094537;28;20059;-74
2021/10/28 19:31:06;;;;;;;7.97;4.03;;;;;;;;;;5091497;28;20513;-74
2021/10/28 19:33:39;;;;;;;6.55;3.28;;;;;;;;;;5089652;28;20055;-74
2021/10/28 19:36:08;;;;;;;6.53;3.65;;;;;;;;;;5091112;28;20048;-74
2021/10/28 19:38:47;;;;;;;9.70;4.30;;;;;;;;;;5096764;28;20413;-74
2021/10/28 19:41:35;;;;;;;5.55;3.15;;;;;;;;;;5093591;28;20057;-74
2021/10/28 19:46:46;;;;;;;6.18;3.55;;;;;;;;;;5084958;28;20559;-74
2021/10/28 19:49:14;;;;;;;7.55;3.78;;;;;;;;;;5090342;28;20056;-74
2021/10/28 19:51:41;;;;;;;8.80;3.67;;;;;;;;;;5089919;28;20145;-74
2021/10/28 19:54:09;;;;;;;7.35;3.60;;;;;;;;;;5090962;28;20482;-74
2021/10/28 19:56:39;;;;;;;6.35;3.50;;;;;;;;;;5084838;28;20048;-74
2021/10/28 19:59:06;;;;;;;7.32;3.30;;;;;;;;;;5089081;28;20117;-74
2021/10/28 20:01:38;;;;;;;5.32;3.65;;;;;;;;;;5082754;28;20051;-74
2021/10/28 20:20:39;;;;;;;5.50;3.45;;;;;;;;;;5086429;28;20094;-74
2021/10/28 20:23:06;;;;;;;7.47;3.92;;;;;;;;;;5089901;28;20575;-73
2021/10/28 20:25:33;;;;;;;5.57;3.33;;;;;;;;;;5093219;28;20142;-73
2021/10/28 20:28:04;;;;;;;6.00;3.50;;;;;;;;;;5089829;28;20066;-73
2021/10/28 20:30:31;;;;;;;7.30;2.92;;;;;;;;;;5089494;28;20556;-73
2021/10/28 20:32:58;;;;;;;7.75;4.20;;;;;;;;;;5102333;28;20644;-73
2021/10/28 20:35:53;;;;;;;6.93;3.20;;;;;;;;;;5095134;28;20052;-73
2021/10/28 20:38:20;;;;;;;6.82;3.95;;;;;;;;;;5089607;28;20494;-73
2021/10/28 20:40:47;;;;;;;6.30;4.03;;;;;;;;;;5090767;28;20044;-73
2021/10/28 20:43:15;;;;;;;6.40;3.95;;;;;;;;;;5093771;28;20043;-73
2021/10/28 20:45:42;;;;;;;7.88;3.58;;;;;;;;;;5090253;28;20055;-73
2021/10/28 20:48:08;;;;;;;8.30;3.85;;;;;;;;;;5090611;28;20127;-73
2021/10/28 20:50:36;;;;;;;7.68;4.05;;;;;;;;;;5094235;28;20055;-73
2021/10/28 20:53:03;;;;;;;8.25;4.55;;;;;;;;;;5100597;28;20085;-73
2021/10/28 20:55:30;;;;;;;7.40;4.25;;;;;;;;;;5097595;28;20044;-73
2021/10/28 20:57:56;;;;;;;7.53;4.93;;;;;;;;;;5102798;28;20067;-73
2021/10/28 21:00:25;;;;;;;10.15;5.03;;;;;;;;;;5093425;28;20052;-73
2021/10/28 21:02:53;;;;;;;8.50;4.85;;;;;;;;;;5093462;28;20048;-73
2021/10/28 21:05:21;;;;;;;10.55;5.38;;;;;;;;;;5090039;28;20413;-73
2021/10/28 21:07:49;;;;;;;15.60;8.80;;;;;;;;;;5090981;28;20502;-73
2021/10/28 21:10:18;;;;;;;16.25;8.05;;;;;;;;;;5093026;28;20044;-73
2021/10/28 21:12:45;;;;;;;17.52;8.48;;;;;;;;;;5099741;28;20050;-73
2021/10/28 21:15:12;;;;;;;39.25;21.58;;;;;;;;;;5092558;28;20451;-73
2021/10/28 21:17:40;;;;;;;25.38;13.85;;;;;;;;;;5093025;28;20520;-73
2021/10/28 21:20:09;;;;;;;29.40;14.73;;;;;;;;;;5098602;28;20172;-73
2021/10/28 21:22:35;;;;;;;22.58;13.45;;;;;;;;;;5092888;28;20040;-73
2021/10/28 21:25:02;;;;;;;25.08;14.48;;;;;;;;;;5093953;28;20403;-73
2021/10/28 21:27:28;;;;;;;32.28;15.63;;;;;;;;;;5093796;28;20070;-73
2021/10/28 21:29:55;;;;;;;27.02;13.88;;;;;;;;;;5092421;28;20044;-73
2021/10/28 21:32:21;;;;;;;23.88;12.40;;;;;;;;;;5094766;28;20040;-73
2021/10/28 21:34:49;;;;;;;22.40;11.85;;;;;;;;;;5101931;28;20032;-72
2021/10/28 21:37:18;;;;;;;22.33;11.70;;;;;;;;;;5095450;28;20044;-73
2021/10/28 21:39:44;;;;;;;21.58;12.75;;;;;;;;;;5092672;28;20048;-73
2021/10/28 21:42:11;;;;;;;28.42;12.43;;;;;;;;;;5093009;28;20051;-73
2021/10/28 21:44:39;;;;;;;27.25;13.93;;;;;;;;;;5096228;28;20482;-73
2021/10/28 21:47:06;;;;;;;23.60;12.45;;;;;;;;;;5092628;28;20056;-73
2021/10/28 21:49:35;;;;;;;26.20;13.82;;;;;;;;;;5096392;28;20048;-73
2021/10/28 21:52:11;;;;;;;26.33;13.27;;;;;;;;;;5097551;28;20101;-73
2021/10/28 21:54:43;;;;;;;23.38;12.63;;;;;;;;;;5097331;28;20122;-73
2021/10/28 21:57:17;;;;;;;24.40;13.30;;;;;;;;;;5093654;28;20048;-73
2021/10/28 22:02:55;;;;;;;23.73;12.45;;;;;;;;;;5091627;28;20055;-73
2021/10/28 22:24:36;;;;;;;24.10;10.32;;;;;;;;;;5093646;28;20062;-73
2021/10/28 22:27:03;;;;;;;15.05;9.80;;;;;;;;;;5092790;28;20081;-73
2021/10/28 22:29:30;;;;;;;15.30;9.68;;;;;;;;;;5090793;28;20047;-73
2021/10/28 22:31:56;;;;;;;15.82;9.63;;;;;;;;;;5092108;28;20055;-73
2021/10/28 22:34:22;;;;;;;14.90;10.20;;;;;;;;;;5098225;28;20509;-73
2021/10/28 22:36:51;;;;;;;19.13;9.93;;;;;;;;;;5091483;28;20044;-73
2021/10/28 22:39:21;;;;;;;16.85;10.07;;;;;;;;;;5095287;28;20044;-73
2021/10/28 22:41:49;;;;;;;15.52;9.25;;;;;;;;;;5091779;28;20052;-73
2021/10/28 22:44:16;;;;;;;14.23;9.35;;;;;;;;;;5094039;28;20126;-73
2021/10/28 22:46:42;;;;;;;14.75;9.85;;;;;;;;;;5091981;28;20048;-73
2021/10/28 22:49:08;;;;;;;12.77;8.93;;;;;;;;;;5091954;28;20486;-73